Haltwhistle, United Kingdom
Current Conditions -  °F | °C
As of 3:20 PM on Monday 22 Dec 2014 (Local Time) from EGNT Reporting Station
Rain Showers Rain Showers  
Wind Chill: 52°   Ceiling: 1000
Heat Index: 52°   Visibility: 6mi
Dew Point: 50°   Wind: 22mph
Humidity: 94%   Direction: 280°W
Pressure: 29.62"   Gusts: 35mph
Location:  54.97°N, 2.46°W
Report Text: EGNT 221520Z 28019G30KT 9999 3000NW VCSH BKN010 11/10 Q1003
Loading
Personal Weather Stations






























Interactive Weather Map New forecast layout! Learn more

10-Day Weather Forecast

Advertisements
Track Severe Weather on mobile